createdAt,value
2022-10-06T00:05:32.338Z,22.57
2022-10-06T00:25:32.161Z,22.56
2022-10-06T02:05:31.428Z,22.54
2022-10-06T03:45:32.073Z,22.52
2022-10-06T04:05:31.910Z,22.53
2022-10-06T04:25:31.261Z,22.52
2022-10-06T04:45:32.076Z,22.51
2022-10-06T05:05:31.470Z,22.51
2022-10-06T05:25:31.976Z,22.5
2022-10-06T05:45:31.958Z,22.49
2022-10-06T06:05:31.948Z,22.49
2022-10-06T06:25:31.902Z,22.49
2022-10-06T06:45:31.884Z,22.49
2022-10-06T07:05:31.853Z,22.47
2022-10-06T07:25:31.351Z,22.47
2022-10-06T07:45:31.854Z,22.46
2022-10-06T08:05:31.791Z,22.45
2022-10-06T08:25:31.764Z,22.45
2022-10-06T08:45:35.022Z,22.44
2022-10-06T09:05:31.698Z,22.43
2022-10-06T10:25:31.586Z,22.43
2022-10-06T10:45:31.551Z,22.43
2022-10-06T11:05:31.381Z,22.42
2022-10-06T11:25:32.788Z,22.41
2022-10-06T11:45:31.487Z,22.41
2022-10-06T12:05:55.644Z,22.39
2022-10-06T12:25:31.370Z,22.37
2022-10-06T12:45:31.357Z,22.35
2022-10-06T13:05:31.312Z,22.33
2022-10-06T13:25:31.283Z,22.32
2022-10-06T13:45:31.244Z,22.32
2022-10-06T14:05:31.216Z,22.31
2022-10-06T14:25:31.187Z,22.31
2022-10-06T14:45:31.170Z,22.31
2022-10-06T15:05:31.145Z,22.31
2022-10-06T15:25:31.088Z,22.31
2022-10-06T16:05:30.261Z,22.29
2022-10-06T16:25:30.885Z,22.27
2022-10-06T16:45:30.996Z,22.26
2022-10-06T17:05:30.946Z,22.26
2022-10-06T17:25:30.919Z,22.25
2022-10-06T17:45:30.928Z,22.23
2022-10-06T18:05:32.939Z,22.23
2022-10-06T18:25:30.868Z,22.21
2022-10-06T18:45:33.268Z,22.21
2022-10-06T19:05:30.868Z,22.2
2022-10-06T19:25:30.818Z,22.2
2022-10-06T19:45:30.805Z,22.2
2022-10-06T20:05:30.031Z,22.2
2022-10-06T20:25:30.255Z,22.19
2022-10-06T20:45:30.757Z,22.19
2022-10-06T21:05:30.760Z,22.19
2022-10-06T21:25:30.744Z,22.19
2022-10-06T21:45:33.008Z,22.19
2022-10-06T22:05:30.722Z,22.19
2022-10-06T22:25:29.936Z,22.19
2022-10-06T22:45:30.213Z,22.18
2022-10-06T23:05:30.687Z,22.18
2022-10-06T23:25:29.556Z,22.18
2022-10-06T23:45:30.738Z,22.17
